sensor_id;sensor_type;location;lat;lon;timestamp;P1;durP1;ratioP1;P2;durP2;ratioP2
1436;SDS011;712;51.026;13.792;2023-03-14T00:00:28;3.13;;;1.07;;
1436;SDS011;712;51.026;13.792;2023-03-14T00:02:53;3.25;;;1.05;;
1436;SDS011;712;51.026;13.792;2023-03-14T00:05:18;4.00;;;1.10;;
1436;SDS011;712;51.026;13.792;2023-03-14T00:07:43;4.27;;;1.37;;
1436;SDS011;712;51.026;13.792;2023-03-14T00:10:11;3.00;;;1.10;;
1436;SDS011;712;51.026;13.792;2023-03-14T00:12:37;4.45;;;1.40;;
1436;SDS011;712;51.026;13.792;2023-03-14T00:15:02;3.65;;;1.20;;
1436;SDS011;712;51.026;13.792;2023-03-14T00:17:32;6.18;;;1.50;;
1436;SDS011;712;51.026;13.792;2023-03-14T00:19:57;4.50;;;1.60;;
1436;SDS011;712;51.026;13.792;2023-03-14T00:22:28;5.25;;;1.33;;
1436;SDS011;712;51.026;13.792;2023-03-14T00:24:54;3.70;;;1.40;;
1436;SDS011;712;51.026;13.792;2023-03-14T00:27:19;5.00;;;1.60;;
1436;SDS011;712;51.026;13.792;2023-03-14T00:29:44;6.13;;;1.40;;
1436;SDS011;712;51.026;13.792;2023-03-14T00:32:09;6.30;;;1.53;;
1436;SDS011;712;51.026;13.792;2023-03-14T00:34:34;5.20;;;1.58;;
1436;SDS011;712;51.026;13.792;2023-03-14T00:37:00;5.37;;;2.00;;
1436;SDS011;712;51.026;13.792;2023-03-14T00:39:25;4.68;;;1.70;;
1436;SDS011;712;51.026;13.792;2023-03-14T00:41:50;5.63;;;1.83;;
1436;SDS011;712;51.026;13.792;2023-03-14T00:44:15;4.50;;;1.80;;
1436;SDS011;712;51.026;13.792;2023-03-14T00:46:40;7.73;;;2.07;;
1436;SDS011;712;51.026;13.792;2023-03-14T00:49:05;8.37;;;2.10;;
1436;SDS011;712;51.026;13.792;2023-03-14T00:51:31;5.97;;;2.58;;
1436;SDS011;712;51.026;13.792;2023-03-14T00:53:56;5.32;;;2.50;;
1436;SDS011;712;51.026;13.792;2023-03-14T00:56:21;5.80;;;2.27;;
1436;SDS011;712;51.026;13.792;2023-03-14T00:58:46;6.40;;;2.47;;
1436;SDS011;712;51.026;13.792;2023-03-14T01:01:15;6.60;;;2.70;;
1436;SDS011;712;51.026;13.792;2023-03-14T01:03:43;5.35;;;2.47;;
1436;SDS011;712;51.026;13.792;2023-03-14T01:06:16;5.22;;;2.50;;
1436;SDS011;712;51.026;13.792;2023-03-14T01:08:41;7.45;;;3.10;;
1436;SDS011;712;51.026;13.792;2023-03-14T01:11:07;7.78;;;3.30;;
1436;SDS011;712;51.026;13.792;2023-03-14T01:13:33;11.73;;;2.90;;
1436;SDS011;712;51.026;13.792;2023-03-14T01:16:06;5.30;;;2.63;;
1436;SDS011;712;51.026;13.792;2023-03-14T01:18:32;4.90;;;2.83;;
1436;SDS011;712;51.026;13.792;2023-03-14T01:20:58;4.97;;;2.47;;
1436;SDS011;712;51.026;13.792;2023-03-14T01:23:23;6.03;;;3.22;;
1436;SDS011;712;51.026;13.792;2023-03-14T01:25:48;5.13;;;2.53;;
1436;SDS011;712;51.026;13.792;2023-03-14T01:28:13;4.47;;;2.30;;
1436;SDS011;712;51.026;13.792;2023-03-14T01:30:38;4.83;;;2.40;;
1436;SDS011;712;51.026;13.792;2023-03-14T01:33:04;6.18;;;2.45;;
1436;SDS011;712;51.026;13.792;2023-03-14T01:35:29;4.90;;;2.40;;
1436;SDS011;712;51.026;13.792;2023-03-14T01:37:54;4.78;;;2.50;;
1436;SDS011;712;51.026;13.792;2023-03-14T01:40:19;6.05;;;2.78;;
1436;SDS011;712;51.026;13.792;2023-03-14T01:42:45;5.60;;;2.40;;
1436;SDS011;712;51.026;13.792;2023-03-14T01:47:54;4.45;;;2.13;;
1436;SDS011;712;51.026;13.792;2023-03-14T01:50:20;6.17;;;2.40;;
1436;SDS011;712;51.026;13.792;2023-03-14T01:52:46;5.32;;;2.35;;
1436;SDS011;712;51.026;13.792;2023-03-14T01:55:13;4.72;;;2.30;;
1436;SDS011;712;51.026;13.792;2023-03-14T01:57:59;5.63;;;2.58;;
1436;SDS011;712;51.026;13.792;2023-03-14T02:00:25;4.80;;;2.30;;
1436;SDS011;712;51.026;13.792;2023-03-14T02:02:55;5.80;;;2.30;;
1436;SDS011;712;51.026;13.792;2023-03-14T02:05:23;4.75;;;2.35;;
1436;SDS011;712;51.026;13.792;2023-03-14T02:07:51;5.03;;;2.30;;
1436;SDS011;712;51.026;13.792;2023-03-14T02:10:17;5.15;;;2.50;;
1436;SDS011;712;51.026;13.792;2023-03-14T02:12:47;4.75;;;2.58;;
1436;SDS011;712;51.026;13.792;2023-03-14T02:15:12;5.88;;;2.53;;
1436;SDS011;712;51.026;13.792;2023-03-14T02:17:38;5.50;;;2.73;;
1436;SDS011;712;51.026;13.792;2023-03-14T02:20:17;5.43;;;2.40;;
1436;SDS011;712;51.026;13.792;2023-03-14T02:22:44;5.22;;;2.35;;
1436;SDS011;712;51.026;13.792;2023-03-14T02:27:54;5.57;;;2.60;;
1436;SDS011;712;51.026;13.792;2023-03-14T02:30:20;5.70;;;2.33;;
1436;SDS011;712;51.026;13.792;2023-03-14T02:32:47;5.15;;;2.28;;
1436;SDS011;712;51.026;13.792;2023-03-14T02:35:14;4.50;;;2.00;;
1436;SDS011;712;51.026;13.792;2023-03-14T02:37:42;4.25;;;2.03;;
1436;SDS011;712;51.026;13.792;2023-03-14T02:40:08;4.25;;;2.05;;
1436;SDS011;712;51.026;13.792;2023-03-14T02:42:34;5.20;;;2.28;;
1436;SDS011;712;51.026;13.792;2023-03-14T02:45:01;5.00;;;1.90;;
1436;SDS011;712;51.026;13.792;2023-03-14T02:47:46;3.97;;;1.65;;
1436;SDS011;712;51.026;13.792;2023-03-14T02:50:15;5.07;;;1.80;;
1436;SDS011;712;51.026;13.792;2023-03-14T02:52:42;3.67;;;1.40;;
1436;SDS011;712;51.026;13.792;2023-03-14T02:55:08;3.58;;;1.20;;
1436;SDS011;712;51.026;13.792;2023-03-14T02:57:33;3.22;;;1.13;;
1436;SDS011;712;51.026;13.792;2023-03-14T02:59:59;1.88;;;0.70;;
1436;SDS011;712;51.026;13.792;2023-03-14T03:02:24;2.25;;;0.70;;
1436;SDS011;712;51.026;13.792;2023-03-14T03:04:49;1.50;;;0.60;;
1436;SDS011;712;51.026;13.792;2023-03-14T03:07:15;2.28;;;0.60;;
1436;SDS011;712;51.026;13.792;2023-03-14T03:09:40;1.98;;;0.50;;
1436;SDS011;712;51.026;13.792;2023-03-14T03:12:05;1.30;;;0.40;;
1436;SDS011;712;51.026;13.792;2023-03-14T03:14:30;3.47;;;0.90;;
1436;SDS011;712;51.026;13.792;2023-03-14T03:16:55;1.67;;;0.60;;
1436;SDS011;712;51.026;13.792;2023-03-14T03:19:21;1.92;;;0.73;;
1436;SDS011;712;51.026;13.792;2023-03-14T03:21:46;1.70;;;0.45;;
1436;SDS011;712;51.026;13.792;2023-03-14T03:24:11;2.57;;;0.50;;
1436;SDS011;712;51.026;13.792;2023-03-14T03:26:36;2.20;;;0.40;;
1436;SDS011;712;51.026;13.792;2023-03-14T03:29:01;2.03;;;0.40;;
1436;SDS011;712;51.026;13.792;2023-03-14T03:31:27;2.53;;;0.50;;
1436;SDS011;712;51.026;13.792;2023-03-14T03:33:52;1.10;;;0.30;;
1436;SDS011;712;51.026;13.792;2023-03-14T03:36:20;1.10;;;0.40;;
1436;SDS011;712;51.026;13.792;2023-03-14T03:38:45;1.00;;;0.43;;
1436;SDS011;712;51.026;13.792;2023-03-14T03:41:11;1.65;;;0.45;;
1436;SDS011;712;51.026;13.792;2023-03-14T03:43:36;1.52;;;0.50;;
1436;SDS011;712;51.026;13.792;2023-03-14T03:46:05;1.00;;;0.50;;
1436;SDS011;712;51.026;13.792;2023-03-14T03:48:30;2.38;;;0.52;;
1436;SDS011;712;51.026;13.792;2023-03-14T03:50:55;2.30;;;0.63;;
1436;SDS011;712;51.026;13.792;2023-03-14T03:53:20;2.03;;;0.60;;
1436;SDS011;712;51.026;13.792;2023-03-14T03:55:45;1.30;;;0.50;;
1436;SDS011;712;51.026;13.792;2023-03-14T03:58:11;2.38;;;0.80;;
1436;SDS011;712;51.026;13.792;2023-03-14T04:00:36;3.45;;;0.80;;
1436;SDS011;712;51.026;13.792;2023-03-14T04:03:01;1.67;;;0.63;;
1436;SDS011;712;51.026;13.792;2023-03-14T04:05:26;2.00;;;0.60;;
1436;SDS011;712;51.026;13.792;2023-03-14T04:07:51;3.83;;;0.80;;
1436;SDS011;712;51.026;13.792;2023-03-14T04:10:16;3.67;;;0.90;;
1436;SDS011;712;51.026;13.792;2023-03-14T04:12:41;2.97;;;0.90;;
1436;SDS011;712;51.026;13.792;2023-03-14T04:15:07;1.63;;;0.50;;
1436;SDS011;712;51.026;13.792;2023-03-14T04:17:32;0.80;;;0.30;;
1436;SDS011;712;51.026;13.792;2023-03-14T04:19:57;1.30;;;0.40;;
1436;SDS011;712;51.026;13.792;2023-03-14T04:22:22;1.08;;;0.40;;
1436;SDS011;712;51.026;13.792;2023-03-14T04:24:48;2.25;;;0.50;;
1436;SDS011;712;51.026;13.792;2023-03-14T04:27:13;0.85;;;0.30;;
1436;SDS011;712;51.026;13.792;2023-03-14T04:29:39;0.98;;;0.30;;
1436;SDS011;712;51.026;13.792;2023-03-14T04:32:04;1.85;;;0.50;;
1436;SDS011;712;51.026;13.792;2023-03-14T04:34:29;1.53;;;0.50;;
1436;SDS011;712;51.026;13.792;2023-03-14T04:36:54;1.80;;;0.50;;
1436;SDS011;712;51.026;13.792;2023-03-14T04:39:20;2.00;;;0.40;;
1436;SDS011;712;51.026;13.792;2023-03-14T04:41:45;1.90;;;0.40;;
1436;SDS011;712;51.026;13.792;2023-03-14T04:44:10;1.13;;;0.32;;
1436;SDS011;712;51.026;13.792;2023-03-14T04:46:36;2.10;;;0.40;;
1436;SDS011;712;51.026;13.792;2023-03-14T04:49:01;0.73;;;0.37;;
1436;SDS011;712;51.026;13.792;2023-03-14T04:51:26;1.87;;;0.37;;
1436;SDS011;712;51.026;13.792;2023-03-14T04:53:52;1.70;;;0.30;;
1436;SDS011;712;51.026;13.792;2023-03-14T04:56:17;2.13;;;0.32;;
1436;SDS011;712;51.026;13.792;2023-03-14T04:58:42;1.25;;;0.35;;
1436;SDS011;712;51.026;13.792;2023-03-14T05:01:08;1.55;;;0.38;;
1436;SDS011;712;51.026;13.792;2023-03-14T05:03:34;1.10;;;0.30;;
1436;SDS011;712;51.026;13.792;2023-03-14T05:06:01;1.42;;;0.30;;
1436;SDS011;712;51.026;13.792;2023-03-14T05:08:26;2.13;;;0.40;;
1436;SDS011;712;51.026;13.792;2023-03-14T05:10:54;2.25;;;0.32;;
1436;SDS011;712;51.026;13.792;2023-03-14T05:13:20;0.68;;;0.30;;
1436;SDS011;712;51.026;13.792;2023-03-14T05:15:45;2.83;;;0.40;;
1436;SDS011;712;51.026;13.792;2023-03-14T05:18:10;0.95;;;0.40;;
1436;SDS011;712;51.026;13.792;2023-03-14T05:20:35;2.55;;;0.50;;
1436;SDS011;712;51.026;13.792;2023-03-14T05:23:00;3.65;;;0.60;;
1436;SDS011;712;51.026;13.792;2023-03-14T05:25:25;3.13;;;0.70;;
1436;SDS011;712;51.026;13.792;2023-03-14T05:27:52;4.60;;;0.60;;
1436;SDS011;712;51.026;13.792;2023-03-14T05:30:18;3.22;;;0.55;;
1436;SDS011;712;51.026;13.792;2023-03-14T05:32:43;2.85;;;0.52;;
1436;SDS011;712;51.026;13.792;2023-03-14T05:35:08;3.97;;;0.75;;
1436;SDS011;712;51.026;13.792;2023-03-14T05:37:33;2.37;;;0.50;;
1436;SDS011;712;51.026;13.792;2023-03-14T05:39:59;3.03;;;0.50;;
1436;SDS011;712;51.026;13.792;2023-03-14T05:42:24;3.10;;;0.60;;
1436;SDS011;712;51.026;13.792;2023-03-14T05:44:49;3.00;;;0.75;;
1436;SDS011;712;51.026;13.792;2023-03-14T05:47:14;4.78;;;0.60;;
1436;SDS011;712;51.026;13.792;2023-03-14T05:49:40;3.63;;;0.53;;
1436;SDS011;712;51.026;13.792;2023-03-14T05:52:05;4.23;;;0.77;;
1436;SDS011;712;51.026;13.792;2023-03-14T05:54:30;3.63;;;0.67;;
1436;SDS011;712;51.026;13.792;2023-03-14T05:56:55;4.55;;;0.65;;
1436;SDS011;712;51.026;13.792;2023-03-14T05:59:20;3.35;;;0.70;;
1436;SDS011;712;51.026;13.792;2023-03-14T06:01:45;3.97;;;0.60;;
1436;SDS011;712;51.026;13.792;2023-03-14T06:04:10;6.18;;;0.60;;
1436;SDS011;712;51.026;13.792;2023-03-14T06:06:36;3.33;;;0.60;;
1436;SDS011;712;51.026;13.792;2023-03-14T06:09:01;3.35;;;0.60;;
1436;SDS011;712;51.026;13.792;2023-03-14T06:11:26;3.92;;;0.68;;
1436;SDS011;712;51.026;13.792;2023-03-14T06:13:51;4.68;;;0.90;;
1436;SDS011;712;51.026;13.792;2023-03-14T06:16:16;5.95;;;0.93;;
1436;SDS011;712;51.026;13.792;2023-03-14T06:18:41;3.73;;;0.60;;
1436;SDS011;712;51.026;13.792;2023-03-14T06:21:07;3.40;;;0.73;;
1436;SDS011;712;51.026;13.792;2023-03-14T06:23:32;6.70;;;0.97;;
1436;SDS011;712;51.026;13.792;2023-03-14T06:25:57;3.87;;;0.83;;
1436;SDS011;712;51.026;13.792;2023-03-14T06:28:22;3.75;;;0.80;;
1436;SDS011;712;51.026;13.792;2023-03-14T06:30:48;5.10;;;0.80;;
1436;SDS011;712;51.026;13.792;2023-03-14T06:33:13;3.25;;;0.60;;
1436;SDS011;712;51.026;13.792;2023-03-14T06:35:38;2.78;;;0.80;;
1436;SDS011;712;51.026;13.792;2023-03-14T06:38:03;2.75;;;0.63;;
1436;SDS011;712;51.026;13.792;2023-03-14T06:40:28;3.10;;;0.97;;
1436;SDS011;712;51.026;13.792;2023-03-14T06:42:54;5.13;;;0.90;;
1436;SDS011;712;51.026;13.792;2023-03-14T06:45:19;4.07;;;0.70;;
1436;SDS011;712;51.026;13.792;2023-03-14T06:47:44;5.13;;;0.80;;
1436;SDS011;712;51.026;13.792;2023-03-14T06:50:10;5.40;;;0.80;;
1436;SDS011;712;51.026;13.792;2023-03-14T06:52:35;3.92;;;0.70;;
1436;SDS011;712;51.026;13.792;2023-03-14T06:55:00;3.45;;;0.77;;
1436;SDS011;712;51.026;13.792;2023-03-14T06:57:26;7.18;;;1.08;;
1436;SDS011;712;51.026;13.792;2023-03-14T06:59:51;4.88;;;0.85;;
1436;SDS011;712;51.026;13.792;2023-03-14T07:02:16;5.33;;;0.73;;
1436;SDS011;712;51.026;13.792;2023-03-14T07:04:41;5.80;;;0.63;;
1436;SDS011;712;51.026;13.792;2023-03-14T07:07:06;3.20;;;0.68;;
1436;SDS011;712;51.026;13.792;2023-03-14T07:09:32;4.15;;;0.70;;
1436;SDS011;712;51.026;13.792;2023-03-14T07:11:57;3.13;;;0.75;;
1436;SDS011;712;51.026;13.792;2023-03-14T07:14:22;4.83;;;1.43;;
1436;SDS011;712;51.026;13.792;2023-03-14T07:16:47;4.40;;;0.80;;
1436;SDS011;712;51.026;13.792;2023-03-14T07:19:12;4.97;;;0.80;;
1436;SDS011;712;51.026;13.792;2023-03-14T07:21:38;4.30;;;0.80;;
1436;SDS011;712;51.026;13.792;2023-03-14T07:24:03;5.20;;;0.83;;
1436;SDS011;712;51.026;13.792;2023-03-14T07:26:28;5.30;;;0.87;;
1436;SDS011;712;51.026;13.792;2023-03-14T07:28:53;5.10;;;0.90;;
1436;SDS011;712;51.026;13.792;2023-03-14T07:31:18;4.43;;;0.87;;
1436;SDS011;712;51.026;13.792;2023-03-14T07:33:44;4.78;;;0.85;;
1436;SDS011;712;51.026;13.792;2023-03-14T07:36:09;4.90;;;0.90;;
1436;SDS011;712;51.026;13.792;2023-03-14T07:38:34;4.77;;;1.03;;
1436;SDS011;712;51.026;13.792;2023-03-14T07:41:00;4.55;;;0.90;;
1436;SDS011;712;51.026;13.792;2023-03-14T07:43:25;7.45;;;1.02;;
1436;SDS011;712;51.026;13.792;2023-03-14T07:45:50;7.53;;;1.00;;
1436;SDS011;712;51.026;13.792;2023-03-14T07:48:16;5.73;;;1.10;;
1436;SDS011;712;51.026;13.792;2023-03-14T07:50:41;5.23;;;1.03;;
1436;SDS011;712;51.026;13.792;2023-03-14T07:53:06;4.47;;;0.93;;
1436;SDS011;712;51.026;13.792;2023-03-14T07:55:31;4.83;;;0.80;;
1436;SDS011;712;51.026;13.792;2023-03-14T07:57:56;5.05;;;0.88;;
1436;SDS011;712;51.026;13.792;2023-03-14T08:00:21;5.70;;;1.20;;
1436;SDS011;712;51.026;13.792;2023-03-14T08:02:47;3.40;;;0.82;;
1436;SDS011;712;51.026;13.792;2023-03-14T08:05:12;4.15;;;0.80;;
1436;SDS011;712;51.026;13.792;2023-03-14T08:07:37;5.23;;;0.83;;
1436;SDS011;712;51.026;13.792;2023-03-14T08:10:03;4.63;;;0.93;;
1436;SDS011;712;51.026;13.792;2023-03-14T08:12:28;5.15;;;1.00;;
1436;SDS011;712;51.026;13.792;2023-03-14T08:14:53;3.77;;;0.80;;
1436;SDS011;712;51.026;13.792;2023-03-14T08:17:18;2.53;;;0.57;;
1436;SDS011;712;51.026;13.792;2023-03-14T08:19:43;3.33;;;0.60;;
1436;SDS011;712;51.026;13.792;2023-03-14T08:22:09;6.90;;;1.30;;
1436;SDS011;712;51.026;13.792;2023-03-14T08:24:34;5.35;;;0.95;;
1436;SDS011;712;51.026;13.792;2023-03-14T08:26:59;5.83;;;1.00;;
1436;SDS011;712;51.026;13.792;2023-03-14T08:29:24;3.55;;;0.80;;
1436;SDS011;712;51.026;13.792;2023-03-14T08:31:49;1.70;;;0.40;;
1436;SDS011;712;51.026;13.792;2023-03-14T08:34:14;2.93;;;0.63;;
1436;SDS011;712;51.026;13.792;2023-03-14T08:36:40;1.83;;;0.50;;
1436;SDS011;712;51.026;13.792;2023-03-14T08:39:05;1.52;;;0.50;;
1436;SDS011;712;51.026;13.792;2023-03-14T08:43:57;3.53;;;0.65;;
1436;SDS011;712;51.026;13.792;2023-03-14T08:46:22;2.80;;;0.50;;
1436;SDS011;712;51.026;13.792;2023-03-14T08:48:47;4.05;;;0.60;;
1436;SDS011;712;51.026;13.792;2023-03-14T08:51:13;3.63;;;0.50;;
1436;SDS011;712;51.026;13.792;2023-03-14T08:53:42;3.80;;;0.90;;
1436;SDS011;712;51.026;13.792;2023-03-14T08:56:07;2.58;;;0.50;;
1436;SDS011;712;51.026;13.792;2023-03-14T08:58:34;5.22;;;0.80;;
1436;SDS011;712;51.026;13.792;2023-03-14T09:01:01;3.38;;;0.68;;
1436;SDS011;712;51.026;13.792;2023-03-14T09:03:26;5.40;;;0.87;;
1436;SDS011;712;51.026;13.792;2023-03-14T09:08:18;4.55;;;0.70;;
1436;SDS011;712;51.026;13.792;2023-03-14T09:10:43;3.95;;;0.75;;
1436;SDS011;712;51.026;13.792;2023-03-14T09:13:08;4.47;;;0.65;;
1436;SDS011;712;51.026;13.792;2023-03-14T09:15:33;4.50;;;0.80;;
1436;SDS011;712;51.026;13.792;2023-03-14T09:17:59;3.63;;;0.63;;
1436;SDS011;712;51.026;13.792;2023-03-14T09:20:24;3.20;;;0.63;;
1436;SDS011;712;51.026;13.792;2023-03-14T09:22:49;2.23;;;0.50;;
1436;SDS011;712;51.026;13.792;2023-03-14T09:25:14;3.53;;;0.80;;
1436;SDS011;712;51.026;13.792;2023-03-14T09:27:39;3.87;;;0.60;;
1436;SDS011;712;51.026;13.792;2023-03-14T09:30:05;2.40;;;0.60;;
1436;SDS011;712;51.026;13.792;2023-03-14T09:32:30;3.30;;;0.60;;
1436;SDS011;712;51.026;13.792;2023-03-14T09:34:56;4.20;;;0.60;;
1436;SDS011;712;51.026;13.792;2023-03-14T09:37:21;1.90;;;0.40;;
1436;SDS011;712;51.026;13.792;2023-03-14T09:39:46;2.72;;;0.60;;
1436;SDS011;712;51.026;13.792;2023-03-14T09:42:13;7.90;;;1.00;;
1436;SDS011;712;51.026;13.792;2023-03-14T09:44:49;3.78;;;0.50;;
1436;SDS011;712;51.026;13.792;2023-03-14T09:47:16;5.93;;;0.60;;
1436;SDS011;712;51.026;13.792;2023-03-14T09:49:44;2.17;;;0.60;;
1436;SDS011;712;51.026;13.792;2023-03-14T09:52:13;2.97;;;0.40;;
1436;SDS011;712;51.026;13.792;2023-03-14T09:54:43;1.88;;;0.45;;
1436;SDS011;712;51.026;13.792;2023-03-14T09:57:16;3.70;;;0.50;;
1436;SDS011;712;51.026;13.792;2023-03-14T09:59:42;3.58;;;0.60;;
1436;SDS011;712;51.026;13.792;2023-03-14T10:02:13;2.70;;;0.55;;
1436;SDS011;712;51.026;13.792;2023-03-14T10:04:39;2.55;;;0.50;;
1436;SDS011;712;51.026;13.792;2023-03-14T10:07:11;3.08;;;0.57;;
1436;SDS011;712;51.026;13.792;2023-03-14T10:09:37;3.25;;;0.55;;
1436;SDS011;712;51.026;13.792;2023-03-14T10:12:02;3.13;;;0.60;;
1436;SDS011;712;51.026;13.792;2023-03-14T10:14:32;2.35;;;0.50;;
1436;SDS011;712;51.026;13.792;2023-03-14T10:17:04;3.75;;;0.65;;
1436;SDS011;712;51.026;13.792;2023-03-14T10:19:29;3.88;;;0.85;;
1436;SDS011;712;51.026;13.792;2023-03-14T10:21:54;2.83;;;0.45;;
1436;SDS011;712;51.026;13.792;2023-03-14T10:24:21;2.22;;;0.60;;
1436;SDS011;712;51.026;13.792;2023-03-14T10:26:53;2.90;;;0.70;;
1436;SDS011;712;51.026;13.792;2023-03-14T10:29:19;4.05;;;1.02;;
1436;SDS011;712;51.026;13.792;2023-03-14T10:34:21;2.67;;;0.70;;
1436;SDS011;712;51.026;13.792;2023-03-14T10:36:48;3.70;;;0.70;;
1436;SDS011;712;51.026;13.792;2023-03-14T10:39:31;2.38;;;0.50;;
1436;SDS011;712;51.026;13.792;2023-03-14T10:42:12;3.78;;;0.70;;
1436;SDS011;712;51.026;13.792;2023-03-14T10:44:39;4.32;;;0.52;;
1436;SDS011;712;51.026;13.792;2023-03-14T10:47:04;3.40;;;0.60;;
1436;SDS011;712;51.026;13.792;2023-03-14T10:49:31;2.08;;;0.52;;
1436;SDS011;712;51.026;13.792;2023-03-14T10:52:19;3.22;;;0.60;;
1436;SDS011;712;51.026;13.792;2023-03-14T10:54:46;2.40;;;0.70;;
1436;SDS011;712;51.026;13.792;2023-03-14T10:57:11;2.90;;;0.50;;
1436;SDS011;712;51.026;13.792;2023-03-14T10:59:37;3.50;;;0.65;;
1436;SDS011;712;51.026;13.792;2023-03-14T11:09:58;2.40;;;0.30;;
1436;SDS011;712;51.026;13.792;2023-03-14T11:14:53;2.08;;;0.60;;
1436;SDS011;712;51.026;13.792;2023-03-14T11:17:25;1.85;;;0.40;;
1436;SDS011;712;51.026;13.792;2023-03-14T11:22:44;1.77;;;0.40;;
1436;SDS011;712;51.026;13.792;2023-03-14T11:27:44;1.87;;;0.30;;
1436;SDS011;712;51.026;13.792;2023-03-14T11:32:42;2.20;;;0.60;;
1436;SDS011;712;51.026;13.792;2023-03-14T11:35:14;3.78;;;0.50;;
1436;SDS011;712;51.026;13.792;2023-03-14T11:37:42;3.17;;;0.50;;
1436;SDS011;712;51.026;13.792;2023-03-14T11:42:38;3.13;;;0.40;;
1436;SDS011;712;51.026;13.792;2023-03-14T11:45:12;3.80;;;0.40;;
1436;SDS011;712;51.026;13.792;2023-03-14T11:47:39;1.95;;;0.32;;
1436;SDS011;712;51.026;13.792;2023-03-14T11:50:25;3.00;;;0.30;;
1436;SDS011;712;51.026;13.792;2023-03-14T11:52:57;2.13;;;0.22;;
1436;SDS011;712;51.026;13.792;2023-03-14T11:55:31;3.53;;;0.50;;
1436;SDS011;712;51.026;13.792;2023-03-14T11:57:58;2.83;;;0.60;;
1436;SDS011;712;51.026;13.792;2023-03-14T12:00:25;4.20;;;0.47;;
1436;SDS011;712;51.026;13.792;2023-03-14T12:02:51;2.30;;;0.40;;
1436;SDS011;712;51.026;13.792;2023-03-14T12:05:25;3.92;;;0.40;;
1436;SDS011;712;51.026;13.792;2023-03-14T12:10:43;1.80;;;0.40;;
1436;SDS011;712;51.026;13.792;2023-03-14T12:13:10;2.15;;;0.30;;
1436;SDS011;712;51.026;13.792;2023-03-14T12:15:38;2.75;;;0.50;;
1436;SDS011;712;51.026;13.792;2023-03-14T12:18:11;2.70;;;0.40;;
1436;SDS011;712;51.026;13.792;2023-03-14T12:20:38;1.50;;;0.30;;
1436;SDS011;712;51.026;13.792;2023-03-14T12:23:05;3.83;;;0.90;;
1436;SDS011;712;51.026;13.792;2023-03-14T12:25:31;1.45;;;0.45;;
1436;SDS011;712;51.026;13.792;2023-03-14T12:30:32;1.67;;;0.47;;
1436;SDS011;712;51.026;13.792;2023-03-14T12:38:04;3.43;;;0.47;;
1436;SDS011;712;51.026;13.792;2023-03-14T12:40:31;2.00;;;0.40;;
1436;SDS011;712;51.026;13.792;2023-03-14T12:42:57;3.22;;;0.65;;
1436;SDS011;712;51.026;13.792;2023-03-14T12:47:53;2.45;;;0.60;;
1436;SDS011;712;51.026;13.792;2023-03-14T12:50:20;2.65;;;0.45;;
1436;SDS011;712;51.026;13.792;2023-03-14T12:52:52;1.80;;;0.32;;
1436;SDS011;712;51.026;13.792;2023-03-14T12:55:33;2.47;;;0.50;;
1436;SDS011;712;51.026;13.792;2023-03-14T12:58:04;1.75;;;0.30;;
1436;SDS011;712;51.026;13.792;2023-03-14T13:00:33;0.77;;;0.20;;
1436;SDS011;712;51.026;13.792;2023-03-14T13:05:24;1.88;;;0.35;;
1436;SDS011;712;51.026;13.792;2023-03-14T13:10:24;9.65;;;1.00;;
1436;SDS011;712;51.026;13.792;2023-03-14T13:12:50;6.15;;;1.30;;
1436;SDS011;712;51.026;13.792;2023-03-14T13:17:45;0.80;;;0.20;;
1436;SDS011;712;51.026;13.792;2023-03-14T13:20:26;1.23;;;0.32;;
1436;SDS011;712;51.026;13.792;2023-03-14T13:22:52;2.83;;;0.50;;
1436;SDS011;712;51.026;13.792;2023-03-14T13:25:17;1.05;;;0.30;;
1436;SDS011;712;51.026;13.792;2023-03-14T13:27:43;1.10;;;0.20;;
1436;SDS011;712;51.026;13.792;2023-03-14T13:30:16;0.25;;;0.20;;
1436;SDS011;712;51.026;13.792;2023-03-14T13:32:42;2.10;;;0.20;;
1436;SDS011;712;51.026;13.792;2023-03-14T13:38:03;1.10;;;0.20;;
1436;SDS011;712;51.026;13.792;2023-03-14T13:40:32;3.10;;;0.38;;
1436;SDS011;712;51.026;13.792;2023-03-14T13:43:11;0.75;;;0.20;;
1436;SDS011;712;51.026;13.792;2023-03-14T13:45:43;2.75;;;0.52;;
1436;SDS011;712;51.026;13.792;2023-03-14T13:48:09;0.88;;;0.30;;
1436;SDS011;712;51.026;13.792;2023-03-14T13:50:34;1.30;;;0.22;;
1436;SDS011;712;51.026;13.792;2023-03-14T13:52:59;1.00;;;0.30;;
1436;SDS011;712;51.026;13.792;2023-03-14T13:55:25;2.60;;;0.50;;
1436;SDS011;712;51.026;13.792;2023-03-14T13:57:51;2.33;;;0.30;;
1436;SDS011;712;51.026;13.792;2023-03-14T14:00:21;0.82;;;0.20;;
1436;SDS011;712;51.026;13.792;2023-03-14T14:05:12;0.60;;;0.20;;
1436;SDS011;712;51.026;13.792;2023-03-14T14:07:37;1.52;;;0.20;;
1436;SDS011;712;51.026;13.792;2023-03-14T14:10:03;1.27;;;0.20;;
1436;SDS011;712;51.026;13.792;2023-03-14T14:12:30;2.00;;;0.35;;
1436;SDS011;712;51.026;13.792;2023-03-14T14:15:07;0.93;;;0.30;;
1436;SDS011;712;51.026;13.792;2023-03-14T14:17:38;1.17;;;0.32;;
1436;SDS011;712;51.026;13.792;2023-03-14T14:20:05;1.33;;;0.30;;
1436;SDS011;712;51.026;13.792;2023-03-14T14:22:31;1.15;;;0.40;;
1436;SDS011;712;51.026;13.792;2023-03-14T14:24:57;1.30;;;0.40;;
1436;SDS011;712;51.026;13.792;2023-03-14T14:27:29;2.08;;;0.20;;
1436;SDS011;712;51.026;13.792;2023-03-14T14:30:01;1.15;;;0.38;;
1436;SDS011;712;51.026;13.792;2023-03-14T14:32:33;2.35;;;0.43;;
1436;SDS011;712;51.026;13.792;2023-03-14T14:34:59;1.63;;;0.35;;
1436;SDS011;712;51.026;13.792;2023-03-14T14:37:26;2.08;;;0.30;;
1436;SDS011;712;51.026;13.792;2023-03-14T14:39:52;1.55;;;0.40;;
1436;SDS011;712;51.026;13.792;2023-03-14T14:44:43;0.60;;;0.20;;
1436;SDS011;712;51.026;13.792;2023-03-14T14:47:12;1.88;;;0.17;;
1436;SDS011;712;51.026;13.792;2023-03-14T14:49:37;0.88;;;0.28;;
1436;SDS011;712;51.026;13.792;2023-03-14T14:52:08;0.80;;;0.30;;
1436;SDS011;712;51.026;13.792;2023-03-14T14:54:37;0.80;;;0.10;;
1436;SDS011;712;51.026;13.792;2023-03-14T14:57:04;0.88;;;0.20;;
1436;SDS011;712;51.026;13.792;2023-03-14T14:59:29;1.05;;;0.30;;
1436;SDS011;712;51.026;13.792;2023-03-14T15:01:55;2.83;;;0.32;;
1436;SDS011;712;51.026;13.792;2023-03-14T15:04:21;2.10;;;0.20;;
1436;SDS011;712;51.026;13.792;2023-03-14T15:06:46;1.92;;;0.30;;
1436;SDS011;712;51.026;13.792;2023-03-14T15:09:13;0.98;;;0.30;;
1436;SDS011;712;51.026;13.792;2023-03-14T15:11:38;1.20;;;0.30;;
1436;SDS011;712;51.026;13.792;2023-03-14T15:14:03;2.00;;;0.30;;
1436;SDS011;712;51.026;13.792;2023-03-14T15:16:29;1.03;;;0.30;;
1436;SDS011;712;51.026;13.792;2023-03-14T15:21:21;1.40;;;0.47;;
1436;SDS011;712;51.026;13.792;2023-03-14T15:23:46;1.85;;;0.50;;
1436;SDS011;712;51.026;13.792;2023-03-14T15:26:11;2.10;;;0.40;;
1436;SDS011;712;51.026;13.792;2023-03-14T15:28:38;2.05;;;0.50;;
1436;SDS011;712;51.026;13.792;2023-03-14T15:31:03;0.83;;;0.30;;
1436;SDS011;712;51.026;13.792;2023-03-14T15:33:28;1.43;;;0.60;;
1436;SDS011;712;51.026;13.792;2023-03-14T15:35:54;1.10;;;0.30;;
1436;SDS011;712;51.026;13.792;2023-03-14T15:38:20;2.13;;;0.38;;
1436;SDS011;712;51.026;13.792;2023-03-14T15:40:46;2.10;;;0.60;;
1436;SDS011;712;51.026;13.792;2023-03-14T15:43:11;1.65;;;0.35;;
1436;SDS011;712;51.026;13.792;2023-03-14T15:45:36;0.70;;;0.20;;
1436;SDS011;712;51.026;13.792;2023-03-14T15:48:02;1.07;;;0.27;;
1436;SDS011;712;51.026;13.792;2023-03-14T15:50:27;1.08;;;0.22;;
1436;SDS011;712;51.026;13.792;2023-03-14T15:52:53;1.23;;;0.30;;
1436;SDS011;712;51.026;13.792;2023-03-14T15:55:18;0.82;;;0.28;;
1436;SDS011;712;51.026;13.792;2023-03-14T15:57:43;2.73;;;0.50;;
1436;SDS011;712;51.026;13.792;2023-03-14T16:00:13;1.77;;;0.30;;
1436;SDS011;712;51.026;13.792;2023-03-14T16:02:39;1.63;;;0.35;;
1436;SDS011;712;51.026;13.792;2023-03-14T16:05:06;2.13;;;0.40;;
1436;SDS011;712;51.026;13.792;2023-03-14T16:07:31;1.53;;;0.30;;
1436;SDS011;712;51.026;13.792;2023-03-14T16:09:58;1.38;;;0.30;;
1436;SDS011;712;51.026;13.792;2023-03-14T16:12:23;1.80;;;0.40;;
1436;SDS011;712;51.026;13.792;2023-03-14T16:14:48;1.42;;;0.40;;